createdAt,value
2018-09-29T00:00:21.227Z,99743.09
2018-09-29T00:02:49.225Z,99742.70
2018-09-29T00:05:17.182Z,99745.45
2018-09-29T00:07:45.689Z,99735.05
2018-09-29T00:10:13.296Z,99733.38
2018-09-29T00:12:43.934Z,99730.33
2018-09-29T00:15:18.249Z,99729.79
2018-09-29T00:17:50.537Z,99738.44
2018-09-29T00:23:09.411Z,99734.20
2018-09-29T00:25:52.799Z,99742.72
2018-09-29T00:28:20.364Z,99742.66
2018-09-29T00:30:56.172Z,99753.45
2018-09-29T00:33:23.591Z,99753.81
2018-09-29T00:35:52.563Z,99748.70
2018-09-29T00:38:24.687Z,99757.02
2018-09-29T00:40:55.891Z,99755.27
2018-09-29T00:43:23.408Z,99757.86
2018-09-29T00:45:53.841Z,99756.63
2018-09-29T00:48:30.190Z,99762.61
2018-09-29T00:50:57.610Z,99760.62
2018-09-29T00:53:28.611Z,99747.30
2018-09-29T00:55:57.390Z,99752.34
2018-09-29T00:58:25.504Z,99754.85
2018-09-29T01:00:52.990Z,99745.33
2018-09-29T01:03:20.537Z,99749.78
2018-09-29T01:05:48.658Z,99759.24
2018-09-29T01:08:15.981Z,99751.73
2018-09-29T01:10:44.348Z,99749.37
2018-09-29T01:13:12.604Z,99751.73
2018-09-29T01:15:40.020Z,99750.36
2018-09-29T01:18:08.418Z,99749.06
2018-09-29T01:20:36.072Z,99747.02
2018-09-29T01:23:04.445Z,99744.41
2018-09-29T01:25:31.734Z,99750.97
2018-09-29T01:28:01.444Z,99754.42
2018-09-29T01:30:29.804Z,99747.86
2018-09-29T01:32:58.181Z,99749.91
2018-09-29T01:35:26.817Z,99750.08
2018-09-29T01:37:55.581Z,99764.04
2018-09-29T01:40:22.965Z,99760.85
2018-09-29T01:42:50.521Z,99766.83
2018-09-29T01:45:17.934Z,99767.80
2018-09-29T01:47:45.324Z,99764.53
2018-09-29T01:50:14.057Z,99766.73
2018-09-29T01:52:42.251Z,99760.24
2018-09-29T01:55:09.651Z,99757.48
2018-09-29T01:57:39.078Z,99753.83
2018-09-29T02:00:06.450Z,99745.09
2018-09-29T02:02:33.966Z,99753.21
2018-09-29T02:05:01.351Z,99753.67
2018-09-29T02:07:29.107Z,99755.03
2018-09-29T02:09:56.518Z,99750.95
2018-09-29T02:12:23.792Z,99749.81
2018-09-29T02:14:51.133Z,99740.81
2018-09-29T02:17:18.490Z,99749.59
2018-09-29T02:19:45.883Z,99747.48
2018-09-29T02:22:13.394Z,99750.59
2018-09-29T02:24:40.737Z,99751.83
2018-09-29T02:27:08.328Z,99747.77
2018-09-29T02:29:41.911Z,99750.69
2018-09-29T02:32:09.240Z,99756.98
2018-09-29T02:34:39.666Z,99752.50
2018-09-29T02:37:07.072Z,99758.61
2018-09-29T02:39:34.472Z,99757.31
2018-09-29T02:42:01.863Z,99757.31
2018-09-29T02:44:29.108Z,99758.55
2018-09-29T02:46:56.559Z,99762.44
2018-09-29T02:49:23.829Z,99762.44
2018-09-29T02:51:54.386Z,99759.42
2018-09-29T02:54:21.893Z,99758.38
2018-09-29T02:56:49.879Z,99753.95
2018-09-29T02:59:17.235Z,99758.52
2018-09-29T03:01:44.677Z,99760.41
2018-09-29T03:04:12.100Z,99753.30
2018-09-29T03:06:39.401Z,99759.25
2018-09-29T03:09:09.625Z,99759.67
2018-09-29T03:11:40.504Z,99760.09
2018-09-29T03:14:08.478Z,99755.33
2018-09-29T03:16:35.830Z,99753.39
2018-09-29T03:19:07.138Z,99765.95
2018-09-29T03:21:36.428Z,99763.25
2018-09-29T03:24:07.724Z,99761.38
2018-09-29T03:26:35.086Z,99765.20
2018-09-29T03:29:02.556Z,99764.02
2018-09-29T03:31:29.836Z,99770.19
2018-09-29T03:33:58.613Z,99766.75
2018-09-29T03:36:26.055Z,99768.02
2018-09-29T03:38:55.837Z,99774.02
2018-09-29T03:41:23.922Z,99772.15
2018-09-29T03:43:51.233Z,99773.48
2018-09-29T03:46:18.670Z,99780.58
2018-09-29T03:48:46.055Z,99779.73
2018-09-29T03:51:16.959Z,99782.41
2018-09-29T03:53:46.196Z,99785.49
2018-09-29T03:56:13.760Z,99786.30
2018-09-29T03:58:44.807Z,99788.82
2018-09-29T04:01:12.286Z,99779.55
2018-09-29T04:03:40.209Z,99784.10
2018-09-29T04:06:09.121Z,99789.59
2018-09-29T04:08:38.186Z,99791.73
2018-09-29T04:11:05.596Z,99787.27
2018-09-29T04:13:32.958Z,99786.09
2018-09-29T04:16:01.207Z,99783.38
2018-09-29T04:18:28.651Z,99791.96
2018-09-29T04:20:55.940Z,99783.27
2018-09-29T04:23:23.277Z,99778.84
2018-09-29T04:25:50.641Z,99779.59
2018-09-29T04:28:18.037Z,99780.36
2018-09-29T04:30:47.193Z,99782.96
2018-09-29T04:33:14.737Z,99788.11
2018-09-29T04:35:43.405Z,99783.03
2018-09-29T04:38:10.760Z,99786.47
2018-09-29T04:40:38.660Z,99785.70
2018-09-29T04:43:06.334Z,99790.17
2018-09-29T04:45:35.426Z,99789.45
2018-09-29T04:48:03.122Z,99788.67
2018-09-29T04:50:31.375Z,99791.81
2018-09-29T04:52:58.828Z,99790.13
2018-09-29T04:55:26.384Z,99794.25
2018-09-29T04:57:54.379Z,99795.58
2018-09-29T05:00:23.207Z,99794.28
2018-09-29T05:03:09.968Z,99800.20
2018-09-29T05:05:48.197Z,99804.55
2018-09-29T05:08:22.287Z,99807.95
2018-09-29T05:11:02.512Z,99814.70
2018-09-29T05:13:32.025Z,99810.55
2018-09-29T05:16:00.194Z,99818.59
2018-09-29T05:18:28.818Z,99823.70
2018-09-29T05:20:57.154Z,99826.02
2018-09-29T05:23:24.736Z,99825.83
2018-09-29T05:25:53.880Z,99832.48
2018-09-29T05:28:22.049Z,99829.84
2018-09-29T05:30:49.546Z,99827.22
2018-09-29T05:33:17.981Z,99821.47
2018-09-29T05:35:58.891Z,99827.66
2018-09-29T05:38:29.670Z,99827.30
2018-09-29T05:41:06.625Z,99832.30
2018-09-29T05:43:45.345Z,99830.36
2018-09-29T05:46:23.531Z,99836.38
2018-09-29T05:48:58.696Z,99844.05
2018-09-29T05:51:56.847Z,99833.89
2018-09-29T05:54:43.116Z,99853.97
2018-09-29T05:57:20.432Z,99849.23
2018-09-29T06:00:03.488Z,99845.56
2018-09-29T06:02:40.580Z,99855.36
2018-09-29T06:05:20.131Z,99853.61
2018-09-29T06:07:54.340Z,99857.80
2018-09-29T06:10:33.555Z,99860.59
2018-09-29T06:13:14.260Z,99868.64
2018-09-29T06:15:42.186Z,99866.31
2018-09-29T06:18:09.666Z,99861.70
2018-09-29T06:20:37.313Z,99874.61
2018-09-29T06:23:08.096Z,99869.21
2018-09-29T06:25:43.572Z,99872.06
2018-09-29T06:28:34.482Z,99866.81
2018-09-29T06:31:13.065Z,99868.75
2018-09-29T06:33:53.137Z,99864.52
2018-09-29T06:36:31.217Z,99854.11
2018-09-29T06:39:04.428Z,99851.98
2018-09-29T06:41:32.399Z,99844.64
2018-09-29T06:44:00.748Z,99846.77
2018-09-29T06:49:34.485Z,99849.41
2018-09-29T06:52:23.584Z,99848.91
2018-09-29T06:55:01.750Z,99850.95
2018-09-29T06:57:32.884Z,99847.36
2018-09-29T07:00:00.725Z,99852.95
2018-09-29T07:02:28.392Z,99849.80
2018-09-29T07:05:07.988Z,99853.25
2018-09-29T07:07:49.644Z,99854.44
2018-09-29T07:10:20.665Z,99850.77
2018-09-29T07:12:48.902Z,99848.80
2018-09-29T07:15:28.479Z,99852.48
2018-09-29T07:17:57.462Z,99848.52
2018-09-29T07:20:31.065Z,99851.23
2018-09-29T07:22:58.671Z,99847.76
2018-09-29T07:25:27.582Z,99852.23
2018-09-29T07:27:55.295Z,99857.95
2018-09-29T07:30:23.059Z,99849.63
2018-09-29T07:32:50.815Z,99861.94
2018-09-29T07:35:21.273Z,99867.17
2018-09-29T07:37:49.712Z,99868.48
2018-09-29T07:40:22.552Z,99873.27
2018-09-29T07:42:50.185Z,99872.40
2018-09-29T07:45:23.173Z,99874.08
2018-09-29T07:47:52.082Z,99870.53
2018-09-29T07:50:25.583Z,99871.80
2018-09-29T07:52:53.889Z,99854.19
2018-09-29T07:55:21.553Z,99853.75
2018-09-29T07:57:49.255Z,99851.30
2018-09-29T08:00:16.792Z,99852.59
2018-09-29T08:02:45.896Z,99848.06
2018-09-29T08:05:13.580Z,99842.82
2018-09-29T08:07:41.084Z,99846.77
2018-09-29T08:10:08.488Z,99843.00
2018-09-29T08:12:38.677Z,99841.50
2018-09-29T08:15:06.880Z,99824.42
2018-09-29T08:17:34.965Z,99830.28
2018-09-29T08:20:03.151Z,99835.11
2018-09-29T08:22:30.545Z,99841.02
2018-09-29T08:25:01.740Z,99847.25
2018-09-29T08:27:34.621Z,99852.02
2018-09-29T08:30:02.195Z,99853.95
2018-09-29T08:32:31.508Z,99850.91
2018-09-29T08:34:59.049Z,99849.94
2018-09-29T08:37:26.647Z,99845.84
2018-09-29T08:39:54.855Z,99847.46
2018-09-29T08:42:27.335Z,99850.11
2018-09-29T08:44:56.034Z,99845.94
2018-09-29T08:47:26.207Z,99837.59
2018-09-29T08:49:56.711Z,99844.03
2018-09-29T08:52:29.677Z,99841.37
2018-09-29T08:54:58.034Z,99845.40
2018-09-29T08:57:26.304Z,99833.05
2018-09-29T08:59:53.867Z,99831.28
2018-09-29T09:02:21.533Z,99834.41
2018-09-29T09:04:50.323Z,99827.60
2018-09-29T09:07:17.973Z,99837.53
2018-09-29T09:09:46.067Z,99834.09
2018-09-29T09:12:15.568Z,99835.73
2018-09-29T09:14:48.113Z,99828.86
2018-09-29T09:17:18.215Z,99827.16
2018-09-29T09:19:46.188Z,99830.84
2018-09-29T09:22:14.867Z,99838.06
2018-09-29T09:24:42.380Z,99838.64
2018-09-29T09:27:10.356Z,99832.77
2018-09-29T09:29:44.939Z,99829.41
2018-09-29T09:32:14.831Z,99828.68
2018-09-29T09:34:42.277Z,99828.15
2018-09-29T09:37:15.664Z,99823.06
2018-09-29T09:39:45.331Z,99822.45
2018-09-29T09:42:17.969Z,99829.51
2018-09-29T09:44:48.965Z,99823.83
2018-09-29T09:47:18.520Z,99829.05
2018-09-29T09:49:46.222Z,99830.98
2018-09-29T09:52:13.978Z,99824.48
2018-09-29T09:54:42.104Z,99824.67
2018-09-29T09:57:09.510Z,99821.56
2018-09-29T09:59:43.192Z,99822.02
2018-09-29T10:02:16.804Z,99812.28
2018-09-29T10:04:44.375Z,99811.84
2018-09-29T10:07:13.483Z,99806.78
2018-09-29T10:09:47.087Z,99812.36
2018-09-29T10:12:21.690Z,99815.75
2018-09-29T10:14:49.222Z,99811.76
2018-09-29T10:17:20.548Z,99810.27
2018-09-29T10:19:48.028Z,99801.79
2018-09-29T10:22:15.603Z,99797.13
2018-09-29T10:24:43.072Z,99800.52
2018-09-29T10:29:57.164Z,99785.63
2018-09-29T10:32:29.196Z,99784.88
2018-09-29T10:35:06.683Z,99778.75
2018-09-29T10:37:34.679Z,99773.77
2018-09-29T10:40:04.130Z,99771.45
2018-09-29T10:42:38.559Z,99772.73
2018-09-29T10:45:16.528Z,99763.99
2018-09-29T10:47:50.443Z,99764.86
2018-09-29T10:50:19.039Z,99769.39
2018-09-29T10:52:51.522Z,99762.72
2018-09-29T10:55:19.799Z,99768.52
2018-09-29T10:57:47.906Z,99762.22
2018-09-29T11:00:22.115Z,99753.81
2018-09-29T11:02:57.549Z,99751.34
2018-09-29T11:05:35.026Z,99749.28
2018-09-29T11:08:03.141Z,99743.98
2018-09-29T11:10:33.673Z,99740.24
2018-09-29T11:13:01.808Z,99734.89
2018-09-29T11:15:39.201Z,99728.13
2018-09-29T11:18:08.122Z,99724.36
2018-09-29T11:20:35.992Z,99720.39
2018-09-29T11:23:05.476Z,99717.70
2018-09-29T11:25:38.709Z,99713.09
2018-09-29T11:28:06.170Z,99713.27
2018-09-29T11:30:34.619Z,99705.00
2018-09-29T11:33:04.268Z,99702.42
2018-09-29T11:35:33.635Z,99705.11
2018-09-29T11:38:01.390Z,99710.00
2018-09-29T11:40:29.444Z,99706.44
2018-09-29T11:43:07.613Z,99698.22
2018-09-29T11:45:36.926Z,99697.19
2018-09-29T11:48:11.752Z,99692.67
2018-09-29T11:50:42.697Z,99693.47
2018-09-29T11:53:12.965Z,99678.08
2018-09-29T11:55:40.656Z,99676.47
2018-09-29T11:58:17.388Z,99676.31
2018-09-29T12:00:46.179Z,99672.18
2018-09-29T12:03:14.942Z,99670.12
2018-09-29T12:05:44.228Z,99671.06
2018-09-29T12:08:13.742Z,99674.84
2018-09-29T12:10:48.094Z,99668.55
2018-09-29T12:13:23.951Z,99669.62
2018-09-29T12:16:00.495Z,99660.84
2018-09-29T12:18:35.656Z,99657.78
2018-09-29T12:21:08.916Z,99656.07
2018-09-29T12:23:41.693Z,99647.56
2018-09-29T12:26:12.225Z,99640.47
2018-09-29T12:28:48.447Z,99640.81
2018-09-29T12:31:19.711Z,99633.36
2018-09-29T12:33:54.767Z,99630.63
2018-09-29T12:36:29.764Z,99625.80
2018-09-29T12:39:05.988Z,99625.11
2018-09-29T12:41:40.364Z,99612.30
2018-09-29T12:44:09.505Z,99608.33
2018-09-29T12:46:37.248Z,99611.61
2018-09-29T12:49:04.857Z,99596.63
2018-09-29T12:51:33.907Z,99606.38
2018-09-29T12:54:02.446Z,99596.13
2018-09-29T12:56:30.532Z,99599.11
2018-09-29T12:58:58.214Z,99589.05
2018-09-29T13:01:27.357Z,99588.47
2018-09-29T13:03:55.530Z,99587.06
2018-09-29T13:06:23.571Z,99579.12
2018-09-29T13:08:53.587Z,99587.21
2018-09-29T13:11:22.718Z,99583.42
2018-09-29T13:13:53.153Z,99581.92
2018-09-29T13:16:21.160Z,99579.22
2018-09-29T13:18:48.850Z,99578.16
2018-09-29T13:21:18.069Z,99573.64
2018-09-29T13:23:49.443Z,99569.13
2018-09-29T13:26:32.477Z,99561.44
2018-09-29T13:29:01.264Z,99561.59
2018-09-29T13:31:30.331Z,99556.43
2018-09-29T13:37:41.092Z,99548.41
2018-09-29T13:40:23.811Z,99541.66
2018-09-29T13:43:07.203Z,99545.77
2018-09-29T13:45:41.914Z,99541.53
2018-09-29T13:48:09.852Z,99541.70
2018-09-29T13:50:45.896Z,99541.74
2018-09-29T13:53:26.574Z,99536.61
2018-09-29T13:56:07.617Z,99530.97
2018-09-29T13:58:51.143Z,99522.86
2018-09-29T14:01:28.301Z,99517.00
2018-09-29T14:03:56.482Z,99514.09
2018-09-29T14:06:28.966Z,99521.23
2018-09-29T14:08:58.258Z,99512.69
2018-09-29T14:11:42.188Z,99508.06
2018-09-29T14:14:12.249Z,99506.33
2018-09-29T14:16:40.947Z,99501.28
2018-09-29T14:19:12.173Z,99503.05
2018-09-29T14:21:45.292Z,99495.12
2018-09-29T14:24:18.071Z,99481.41
2018-09-29T14:26:48.190Z,99481.98
2018-09-29T14:29:18.674Z,99483.51
2018-09-29T14:31:47.574Z,99478.14
2018-09-29T14:34:26.601Z,99480.66
2018-09-29T14:36:57.572Z,99477.19
2018-09-29T14:39:25.491Z,99471.78
2018-09-29T14:41:53.771Z,99473.97
2018-09-29T14:44:21.706Z,99471.33
2018-09-29T14:46:49.437Z,99471.38
2018-09-29T14:49:17.060Z,99463.56
2018-09-29T14:51:46.176Z,99470.17
2018-09-29T14:54:16.535Z,99468.83
2018-09-29T14:56:45.130Z,99460.11
2018-09-29T14:59:13.500Z,99459.28
2018-09-29T15:01:43.453Z,99461.06
2018-09-29T15:04:20.959Z,99458.22
2018-09-29T15:06:51.669Z,99444.41
2018-09-29T15:09:31.308Z,99444.00
2018-09-29T15:11:59.358Z,99442.30
2018-09-29T15:14:33.216Z,99444.16
2018-09-29T15:17:03.040Z,99436.61
2018-09-29T15:19:31.960Z,99437.48
2018-09-29T15:21:59.568Z,99431.41
2018-09-29T15:24:26.996Z,99431.44
2018-09-29T15:26:55.761Z,99428.77
2018-09-29T15:29:24.451Z,99421.45
2018-09-29T15:31:52.116Z,99422.46
2018-09-29T15:34:19.605Z,99412.77
2018-09-29T15:36:47.182Z,99417.37
2018-09-29T15:39:14.698Z,99415.74
2018-09-29T15:41:43.753Z,99413.10
2018-09-29T15:44:11.599Z,99412.20
2018-09-29T15:46:47.270Z,99406.20
2018-09-29T15:49:21.843Z,99409.25
2018-09-29T15:51:50.752Z,99407.06
2018-09-29T15:54:19.706Z,99403.14
2018-09-29T15:56:49.274Z,99394.13
2018-09-29T15:59:22.402Z,99391.13
2018-09-29T16:01:51.483Z,99390.86
2018-09-29T16:04:19.002Z,99387.42
2018-09-29T16:06:48.801Z,99383.18
2018-09-29T16:09:21.999Z,99379.26
2018-09-29T16:11:49.541Z,99379.78
2018-09-29T16:14:18.440Z,99374.56
2018-09-29T16:16:46.482Z,99375.95
2018-09-29T16:19:14.042Z,99372.93
2018-09-29T16:21:43.187Z,99372.06
2018-09-29T16:24:21.316Z,99367.37
2018-09-29T16:26:48.814Z,99374.05
2018-09-29T16:29:16.344Z,99370.16
2018-09-29T16:31:43.826Z,99373.34
2018-09-29T16:34:11.425Z,99371.73
2018-09-29T16:36:39.869Z,99369.66
2018-09-29T16:39:14.322Z,99375.47
2018-09-29T16:41:46.897Z,99367.63
2018-09-29T16:44:14.370Z,99366.84
2018-09-29T16:46:41.842Z,99377.02
2018-09-29T16:49:10.436Z,99374.91
2018-09-29T16:51:37.809Z,99372.38
2018-09-29T16:54:05.414Z,99376.91
2018-09-29T16:56:33.842Z,99374.11
2018-09-29T16:59:01.525Z,99368.16
2018-09-29T17:01:29.844Z,99378.87
2018-09-29T17:03:57.410Z,99376.77
2018-09-29T17:06:24.901Z,99373.34
2018-09-29T17:08:53.367Z,99373.38
2018-09-29T17:11:21.574Z,99373.40
2018-09-29T17:13:49.581Z,99373.50
2018-09-29T17:16:17.096Z,99372.23
2018-09-29T17:18:44.600Z,99381.02
2018-09-29T17:21:12.864Z,99375.83
2018-09-29T17:23:41.240Z,99374.59
2018-09-29T17:26:08.707Z,99379.03
2018-09-29T17:28:36.068Z,99378.14
2018-09-29T17:31:03.449Z,99375.09
2018-09-29T17:33:30.856Z,99383.89
2018-09-29T17:35:59.060Z,99382.24
2018-09-29T17:38:27.169Z,99380.47
2018-09-29T17:40:55.377Z,99373.52
2018-09-29T17:43:22.713Z,99373.09
2018-09-29T17:45:50.150Z,99380.59
2018-09-29T17:48:17.471Z,99380.64
2018-09-29T17:50:44.799Z,99379.78
2018-09-29T17:53:12.348Z,99376.30
2018-09-29T17:55:39.716Z,99377.66
2018-09-29T17:58:07.002Z,99378.55
2018-09-29T18:00:34.345Z,99379.39
2018-09-29T18:03:01.710Z,99376.34
2018-09-29T18:05:29.074Z,99381.17
2018-09-29T18:07:56.497Z,99376.77
2018-09-29T18:10:24.108Z,99376.34
2018-09-29T18:12:51.580Z,99371.55
2018-09-29T18:15:19.051Z,99368.92
2018-09-29T18:17:46.470Z,99371.14
2018-09-29T18:20:14.536Z,99371.56
2018-09-29T18:22:41.919Z,99373.75
2018-09-29T18:25:09.901Z,99377.29
2018-09-29T18:27:37.301Z,99376.53
2018-09-29T18:30:05.019Z,99376.13
2018-09-29T18:32:32.406Z,99369.14
2018-09-29T18:34:59.776Z,99373.47
2018-09-29T18:37:27.166Z,99376.13
2018-09-29T18:39:55.276Z,99372.20
2018-09-29T18:42:22.638Z,99373.50
2018-09-29T18:44:50.180Z,99367.81
2018-09-29T18:47:18.129Z,99379.64
2018-09-29T18:49:45.588Z,99373.50
2018-09-29T18:52:13.670Z,99370.44
2018-09-29T18:54:41.809Z,99367.38
2018-09-29T18:57:09.525Z,99373.06
2018-09-29T18:59:40.844Z,99369.55
2018-09-29T19:02:09.347Z,99369.55
2018-09-29T19:04:38.402Z,99368.26
2018-09-29T19:07:06.496Z,99377.87
2018-09-29T19:09:36.048Z,99372.19
2018-09-29T19:12:05.756Z,99378.31
2018-09-29T19:14:34.593Z,99370.91
2018-09-29T19:17:02.011Z,99372.22
2018-09-29T19:19:30.231Z,99377.45
2018-09-29T19:21:57.706Z,99373.50
2018-09-29T19:24:25.849Z,99373.94
2018-09-29T19:26:53.312Z,99377.88
2018-09-29T19:29:20.730Z,99370.48
2018-09-29T19:31:48.026Z,99368.28
2018-09-29T19:34:15.381Z,99367.43
2018-09-29T19:36:42.771Z,99372.21
2018-09-29T19:39:10.243Z,99372.23
2018-09-29T19:41:37.871Z,99366.09
2018-09-29T19:44:05.532Z,99371.34
2018-09-29T19:46:33.140Z,99366.08
2018-09-29T19:49:00.464Z,99362.14
2018-09-29T19:51:27.979Z,99356.93
2018-09-29T19:53:56.125Z,99356.93
2018-09-29T19:56:23.471Z,99351.67
2018-09-29T19:58:50.741Z,99354.73
2018-09-29T20:01:18.049Z,99350.38
2018-09-29T20:03:45.540Z,99349.08
2018-09-29T20:06:13.833Z,99343.38
2018-09-29T20:08:41.248Z,99341.21
2018-09-29T20:11:08.759Z,99347.75
2018-09-29T20:13:37.058Z,99345.14
2018-09-29T20:16:04.435Z,99340.76
2018-09-29T20:18:32.358Z,99345.58
2018-09-29T20:21:00.501Z,99342.50
2018-09-29T20:23:27.936Z,99345.56
2018-09-29T20:25:55.228Z,99340.77
2018-09-29T20:28:28.510Z,99336.84
2018-09-29T20:30:55.973Z,99335.10
2018-09-29T20:33:23.895Z,99329.87
2018-09-29T20:35:51.328Z,99326.36
2018-09-29T20:38:18.619Z,99325.94
2018-09-29T20:40:45.909Z,99327.66
2018-09-29T20:43:13.337Z,99318.50
2018-09-29T20:45:40.722Z,99315.45
2018-09-29T20:48:08.651Z,99309.34
2018-09-29T20:50:37.512Z,99308.48
2018-09-29T20:53:05.110Z,99302.81
2018-09-29T20:55:53.158Z,99308.03
2018-09-29T20:58:24.674Z,99306.30
2018-09-29T21:00:55.034Z,99304.98
2018-09-29T21:03:26.981Z,99299.73
2018-09-29T21:05:55.382Z,99294.97
2018-09-29T21:08:24.057Z,99295.38
2018-09-29T21:10:54.513Z,99289.70
2018-09-29T21:13:25.192Z,99292.72
2018-09-29T21:15:53.230Z,99288.36
2018-09-29T21:18:22.735Z,99291.84
2018-09-29T21:20:54.129Z,99290.54
2018-09-29T21:23:23.891Z,99288.34
2018-09-29T21:25:52.600Z,99287.91
2018-09-29T21:28:21.112Z,99273.55
2018-09-29T21:30:48.737Z,99280.52
2018-09-29T21:33:19.321Z,99274.42
2018-09-29T21:35:49.023Z,99270.50
2018-09-29T21:38:16.816Z,99268.29
2018-09-29T21:40:44.677Z,99267.84
2018-09-29T21:43:15.397Z,99269.16
2018-09-29T21:45:43.203Z,99261.74
2018-09-29T21:48:15.141Z,99256.52
2018-09-29T21:50:44.305Z,99263.07
2018-09-29T21:53:12.530Z,99254.80
2018-09-29T21:55:39.835Z,99245.18
2018-09-29T21:58:07.200Z,99243.00
2018-09-29T22:00:40.404Z,99239.52
2018-09-29T22:03:07.754Z,99235.15
2018-09-29T22:05:35.103Z,99231.20
2018-09-29T22:08:03.720Z,99236.84
2018-09-29T22:10:31.104Z,99233.31
2018-09-29T22:12:58.451Z,99228.96
2018-09-29T22:15:25.819Z,99232.38
2018-09-29T22:17:53.258Z,99222.37
2018-09-29T22:20:20.640Z,99221.89
2018-09-29T22:22:48.020Z,99223.17
2018-09-29T22:25:15.369Z,99216.17
2018-09-29T22:27:42.744Z,99213.12
2018-09-29T22:30:10.197Z,99217.91
2018-09-29T22:32:37.595Z,99219.64
2018-09-29T22:35:04.974Z,99210.94
2018-09-29T22:37:32.351Z,99205.76
2018-09-29T22:39:59.672Z,99200.94
2018-09-29T22:42:27.730Z,99199.12
2018-09-29T22:44:55.693Z,99202.16
2018-09-29T22:47:23.046Z,99192.12
2018-09-29T22:49:50.454Z,99185.59
2018-09-29T22:52:17.831Z,99181.23
2018-09-29T22:54:45.129Z,99176.84
2018-09-29T22:57:12.549Z,99173.31
2018-09-29T22:59:39.896Z,99168.50
2018-09-29T23:02:07.458Z,99166.75
2018-09-29T23:04:34.776Z,99162.33
2018-09-29T23:07:02.880Z,99164.92
2018-09-29T23:09:30.877Z,99165.75
2018-09-29T23:11:58.158Z,99160.95
2018-09-29T23:14:25.494Z,99159.65
2018-09-29T23:16:52.826Z,99164.49
2018-09-29T23:19:20.144Z,99162.31
2018-09-29T23:21:48.106Z,99171.41
2018-09-29T23:24:15.485Z,99163.09
2018-09-29T23:26:42.858Z,99160.48
2018-09-29T23:29:10.281Z,99153.56
2018-09-29T23:31:37.652Z,99153.53
2018-09-29T23:34:05.440Z,99153.08
2018-09-29T23:36:32.816Z,99148.25
2018-09-29T23:39:01.103Z,99147.37
2018-09-29T23:41:28.639Z,99150.36
2018-09-29T23:43:55.935Z,99147.33
2018-09-29T23:46:23.253Z,99139.94
2018-09-29T23:48:50.649Z,99142.11
2018-09-29T23:51:24.697Z,99141.67
2018-09-29T23:53:52.066Z,99138.15
2018-09-29T23:56:19.485Z,99135.11
2018-09-29T23:58:46.943Z,99129.06
